Terminal Aerodrome Forecast
Issued by NWS Melbourne, FL

Home | Current Version | Previous Version | Text Only | Print | Product List | Glossary On
Versions: 1 2 3 4 5 6 7 8 9 10 11 12 13 14
928
FTUS42 KMLB 081739
TAFDAB
TAF
KDAB 081739Z 0818/0918 24015G20KT P6SM SCT050 BKN300
      TEMPO 0819/0823 BKN050
     FM090000 26015G20KT P6SM VCSH BKN050
     FM090600 29015G22KT P6SM BKN050
     FM091600 27020G30KT P6SM BKN050=

USA.gov is the U.S. government's official web portal to all federal, state and local government web resources and services.